sensor_id;sensor_type;location;lat;lon;timestamp;pressure;altitude;pressure_sealevel;temperature;humidity
10014;BME280;45684;48.358;10.746;2022-09-02T00:00:08;96307.47;;;14.10;100.00
10014;BME280;45684;48.358;10.746;2022-09-02T00:02:39;96306.75;;;14.01;100.00
10014;BME280;45684;48.358;10.746;2022-09-02T00:05:07;96302.88;;;13.90;100.00
10014;BME280;45684;48.358;10.746;2022-09-02T00:07:36;96303.53;;;13.87;100.00
10014;BME280;45684;48.358;10.746;2022-09-02T00:10:05;96301.00;;;13.82;100.00
10014;BME280;45684;48.358;10.746;2022-09-02T00:12:33;96293.72;;;13.73;100.00
10014;BME280;45684;48.358;10.746;2022-09-02T00:15:02;96292.78;;;13.69;100.00
10014;BME280;45684;48.358;10.746;2022-09-02T00:17:31;96292.66;;;13.66;100.00
10014;BME280;45684;48.358;10.746;2022-09-02T00:19:58;96298.91;;;13.66;100.00
10014;BME280;45684;48.358;10.746;2022-09-02T00:22:26;96296.38;;;13.61;100.00
10014;BME280;45684;48.358;10.746;2022-09-02T00:24:56;96294.78;;;13.60;100.00
10014;BME280;45684;48.358;10.746;2022-09-02T00:27:23;96299.50;;;13.51;100.00
10014;BME280;45684;48.358;10.746;2022-09-02T00:29:52;96293.06;;;13.56;100.00
10014;BME280;45684;48.358;10.746;2022-09-02T00:32:19;96290.41;;;13.47;100.00
10014;BME280;45684;48.358;10.746;2022-09-02T00:34:48;96291.09;;;13.44;100.00
10014;BME280;45684;48.358;10.746;2022-09-02T00:37:16;96282.22;;;13.35;100.00
10014;BME280;45684;48.358;10.746;2022-09-02T00:39:43;96292.59;;;13.33;100.00
10014;BME280;45684;48.358;10.746;2022-09-02T00:42:13;96286.78;;;13.22;100.00
10014;BME280;45684;48.358;10.746;2022-09-02T00:44:40;96271.88;;;13.19;100.00
10014;BME280;45684;48.358;10.746;2022-09-02T00:47:08;96278.31;;;13.15;100.00
10014;BME280;45684;48.358;10.746;2022-09-02T00:49:39;96275.19;;;13.04;100.00
10014;BME280;45684;48.358;10.746;2022-09-02T00:52:12;96273.66;;;12.94;100.00
10014;BME280;45684;48.358;10.746;2022-09-02T00:54:49;96266.00;;;12.96;100.00
10014;BME280;45684;48.358;10.746;2022-09-02T00:57:21;96263.00;;;12.89;100.00
10014;BME280;45684;48.358;10.746;2022-09-02T00:59:53;96270.50;;;12.92;100.00
10014;BME280;45684;48.358;10.746;2022-09-02T01:02:24;96265.84;;;12.93;100.00
10014;BME280;45684;48.358;10.746;2022-09-02T01:04:54;96270.16;;;12.94;100.00
10014;BME280;45684;48.358;10.746;2022-09-02T01:07:26;96266.31;;;12.95;100.00
10014;BME280;45684;48.358;10.746;2022-09-02T01:09:57;96266.59;;;13.02;100.00
10014;BME280;45684;48.358;10.746;2022-09-02T01:12:28;96267.53;;;13.06;100.00
10014;BME280;45684;48.358;10.746;2022-09-02T01:14:57;96276.59;;;13.10;100.00
10014;BME280;45684;48.358;10.746;2022-09-02T01:17:26;96270.06;;;13.11;100.00
10014;BME280;45684;48.358;10.746;2022-09-02T01:19:57;96271.63;;;13.12;100.00
10014;BME280;45684;48.358;10.746;2022-09-02T01:22:30;96272.09;;;13.14;100.00
10014;BME280;45684;48.358;10.746;2022-09-02T01:25:03;96269.06;;;13.16;100.00
10014;BME280;45684;48.358;10.746;2022-09-02T01:27:32;96266.66;;;13.14;100.00
10014;BME280;45684;48.358;10.746;2022-09-02T01:30:00;96263.50;;;13.12;100.00
10014;BME280;45684;48.358;10.746;2022-09-02T01:32:29;96264.47;;;13.08;100.00
10014;BME280;45684;48.358;10.746;2022-09-02T01:34:57;96258.44;;;13.02;100.00
10014;BME280;45684;48.358;10.746;2022-09-02T01:37:25;96254.19;;;12.92;100.00
10014;BME280;45684;48.358;10.746;2022-09-02T01:39:55;96253.22;;;12.67;100.00
10014;BME280;45684;48.358;10.746;2022-09-02T01:42:23;96252.59;;;12.62;100.00
10014;BME280;45684;48.358;10.746;2022-09-02T01:44:52;96259.78;;;12.58;100.00
10014;BME280;45684;48.358;10.746;2022-09-02T01:47:22;96256.78;;;12.59;100.00
10014;BME280;45684;48.358;10.746;2022-09-02T01:49:50;96254.38;;;12.58;100.00
10014;BME280;45684;48.358;10.746;2022-09-02T01:52:22;96251.69;;;12.49;100.00
10014;BME280;45684;48.358;10.746;2022-09-02T01:54:50;96259.53;;;12.50;100.00
10014;BME280;45684;48.358;10.746;2022-09-02T01:57:19;96267.03;;;12.45;100.00
10014;BME280;45684;48.358;10.746;2022-09-02T01:59:50;96248.09;;;12.36;100.00
10014;BME280;45684;48.358;10.746;2022-09-02T02:02:18;96250.19;;;12.31;100.00
10014;BME280;45684;48.358;10.746;2022-09-02T02:04:47;96256.91;;;12.24;100.00
10014;BME280;45684;48.358;10.746;2022-09-02T02:07:19;96247.66;;;12.25;100.00
10014;BME280;45684;48.358;10.746;2022-09-02T02:09:48;96249.72;;;12.29;100.00
10014;BME280;45684;48.358;10.746;2022-09-02T02:12:19;96251.81;;;12.23;100.00
10014;BME280;45684;48.358;10.746;2022-09-02T02:14:47;96250.72;;;12.15;100.00
10014;BME280;45684;48.358;10.746;2022-09-02T02:17:15;96258.84;;;12.15;100.00
10014;BME280;45684;48.358;10.746;2022-09-02T02:19:43;96254.22;;;12.16;100.00
10014;BME280;45684;48.358;10.746;2022-09-02T02:22:11;96252.34;;;12.08;100.00
10014;BME280;45684;48.358;10.746;2022-09-02T02:24:39;96252.66;;;12.06;100.00
10014;BME280;45684;48.358;10.746;2022-09-02T02:27:07;96256.19;;;11.98;100.00
10014;BME280;45684;48.358;10.746;2022-09-02T02:29:36;96250.63;;;11.94;100.00
10014;BME280;45684;48.358;10.746;2022-09-02T02:32:04;96242.66;;;11.89;100.00
10014;BME280;45684;48.358;10.746;2022-09-02T02:34:33;96237.41;;;11.84;100.00
10014;BME280;45684;48.358;10.746;2022-09-02T02:37:02;96242.97;;;11.79;100.00
10014;BME280;45684;48.358;10.746;2022-09-02T02:39:30;96239.00;;;11.77;100.00
10014;BME280;45684;48.358;10.746;2022-09-02T02:41:58;96240.13;;;11.75;100.00
10014;BME280;45684;48.358;10.746;2022-09-02T02:44:26;96235.19;;;11.86;100.00
10014;BME280;45684;48.358;10.746;2022-09-02T02:46:56;96243.31;;;11.86;100.00
10014;BME280;45684;48.358;10.746;2022-09-02T02:49:25;96239.00;;;11.85;100.00
10014;BME280;45684;48.358;10.746;2022-09-02T02:51:53;96239.66;;;11.82;100.00
10014;BME280;45684;48.358;10.746;2022-09-02T02:54:21;96232.44;;;11.78;100.00
10014;BME280;45684;48.358;10.746;2022-09-02T02:57:00;96235.94;;;11.78;100.00
10014;BME280;45684;48.358;10.746;2022-09-02T02:59:29;96227.50;;;11.80;100.00
10014;BME280;45684;48.358;10.746;2022-09-02T03:01:59;96226.25;;;11.77;100.00
10014;BME280;45684;48.358;10.746;2022-09-02T03:04:27;96225.78;;;11.75;100.00
10014;BME280;45684;48.358;10.746;2022-09-02T03:06:55;96228.16;;;11.77;100.00
10014;BME280;45684;48.358;10.746;2022-09-02T03:09:23;96224.34;;;11.69;100.00
10014;BME280;45684;48.358;10.746;2022-09-02T03:11:51;96226.44;;;11.63;100.00
10014;BME280;45684;48.358;10.746;2022-09-02T03:14:19;96222.59;;;11.64;100.00
10014;BME280;45684;48.358;10.746;2022-09-02T03:16:47;96216.38;;;11.64;100.00
10014;BME280;45684;48.358;10.746;2022-09-02T03:19:17;96216.22;;;11.60;100.00
10014;BME280;45684;48.358;10.746;2022-09-02T03:21:45;96228.34;;;11.54;100.00
10014;BME280;45684;48.358;10.746;2022-09-02T03:24:13;96224.06;;;11.53;100.00
10014;BME280;45684;48.358;10.746;2022-09-02T03:26:41;96225.00;;;11.48;100.00
10014;BME280;45684;48.358;10.746;2022-09-02T03:29:10;96217.34;;;11.50;100.00
10014;BME280;45684;48.358;10.746;2022-09-02T03:31:39;96217.06;;;11.52;100.00
10014;BME280;45684;48.358;10.746;2022-09-02T03:34:07;96223.09;;;11.49;100.00
10014;BME280;45684;48.358;10.746;2022-09-02T03:36:38;96215.75;;;11.58;100.00
10014;BME280;45684;48.358;10.746;2022-09-02T03:39:09;96218.63;;;11.62;100.00
10014;BME280;45684;48.358;10.746;2022-09-02T03:41:40;96223.56;;;11.51;100.00
10014;BME280;45684;48.358;10.746;2022-09-02T03:44:09;96215.31;;;11.47;100.00
10014;BME280;45684;48.358;10.746;2022-09-02T03:46:39;96217.19;;;11.47;100.00
10014;BME280;45684;48.358;10.746;2022-09-02T03:49:07;96214.66;;;11.42;100.00
10014;BME280;45684;48.358;10.746;2022-09-02T03:51:38;96216.09;;;11.39;100.00
10014;BME280;45684;48.358;10.746;2022-09-02T03:54:07;96214.19;;;11.40;100.00
10014;BME280;45684;48.358;10.746;2022-09-02T03:56:36;96213.06;;;11.41;100.00
10014;BME280;45684;48.358;10.746;2022-09-02T03:59:06;96205.25;;;11.48;100.00
10014;BME280;45684;48.358;10.746;2022-09-02T04:01:34;96207.31;;;11.51;100.00
10014;BME280;45684;48.358;10.746;2022-09-02T04:04:03;96214.19;;;11.57;100.00
10014;BME280;45684;48.358;10.746;2022-09-02T04:06:34;96207.31;;;11.60;100.00
10014;BME280;45684;48.358;10.746;2022-09-02T04:09:04;96205.25;;;11.57;100.00
10014;BME280;45684;48.358;10.746;2022-09-02T04:11:33;96197.75;;;11.54;100.00
10014;BME280;45684;48.358;10.746;2022-09-02T04:14:00;96203.34;;;11.57;100.00
10014;BME280;45684;48.358;10.746;2022-09-02T04:16:30;96192.50;;;11.57;100.00
10014;BME280;45684;48.358;10.746;2022-09-02T04:19:03;96196.16;;;11.61;100.00
10014;BME280;45684;48.358;10.746;2022-09-02T04:21:33;96200.91;;;11.64;100.00
10014;BME280;45684;48.358;10.746;2022-09-02T04:24:03;96204.13;;;11.66;100.00
10014;BME280;45684;48.358;10.746;2022-09-02T04:26:32;96206.84;;;11.66;100.00
10014;BME280;45684;48.358;10.746;2022-09-02T04:29:00;96201.72;;;11.65;100.00
10014;BME280;45684;48.358;10.746;2022-09-02T04:31:29;96200.31;;;11.59;100.00
10014;BME280;45684;48.358;10.746;2022-09-02T04:33:58;96195.84;;;11.54;100.00
10014;BME280;45684;48.358;10.746;2022-09-02T04:36:27;96204.13;;;11.49;100.00
10014;BME280;45684;48.358;10.746;2022-09-02T04:39:00;96203.34;;;11.48;100.00
10014;BME280;45684;48.358;10.746;2022-09-02T04:41:32;96199.00;;;11.56;100.00
10014;BME280;45684;48.358;10.746;2022-09-02T04:44:04;96195.06;;;11.54;100.00
10014;BME280;45684;48.358;10.746;2022-09-02T04:46:36;96198.22;;;11.56;100.00
10014;BME280;45684;48.358;10.746;2022-09-02T04:49:07;96196.31;;;11.56;100.00
10014;BME280;45684;48.358;10.746;2022-09-02T04:51:37;96199.50;;;11.58;100.00
10014;BME280;45684;48.358;10.746;2022-09-02T04:54:08;96198.22;;;11.64;100.00
10014;BME280;45684;48.358;10.746;2022-09-02T04:56:40;96196.00;;;11.66;100.00
10014;BME280;45684;48.358;10.746;2022-09-02T04:59:08;96198.84;;;11.70;100.00
10014;BME280;45684;48.358;10.746;2022-09-02T05:01:41;96198.19;;;11.73;100.00
10014;BME280;45684;48.358;10.746;2022-09-02T05:04:15;96195.16;;;11.74;100.00
10014;BME280;45684;48.358;10.746;2022-09-02T05:06:47;96202.97;;;11.76;100.00
10014;BME280;45684;48.358;10.746;2022-09-02T05:09:19;96201.06;;;11.77;100.00
10014;BME280;45684;48.358;10.746;2022-09-02T05:11:54;96199.47;;;11.75;100.00
10014;BME280;45684;48.358;10.746;2022-09-02T05:14:27;96203.09;;;11.80;100.00
10014;BME280;45684;48.358;10.746;2022-09-02T05:16:58;96189.25;;;11.81;100.00
10014;BME280;45684;48.358;10.746;2022-09-02T05:19:34;96196.75;;;11.84;100.00
10014;BME280;45684;48.358;10.746;2022-09-02T05:22:01;96198.50;;;11.89;100.00
10014;BME280;45684;48.358;10.746;2022-09-02T05:24:35;96202.47;;;11.91;100.00
10014;BME280;45684;48.358;10.746;2022-09-02T05:27:07;96197.69;;;11.97;100.00
10014;BME280;45684;48.358;10.746;2022-09-02T05:29:35;96201.00;;;12.03;100.00
10014;BME280;45684;48.358;10.746;2022-09-02T05:32:05;96204.53;;;12.03;100.00
10014;BME280;45684;48.358;10.746;2022-09-02T05:34:35;96200.50;;;12.09;100.00
10014;BME280;45684;48.358;10.746;2022-09-02T05:37:03;96211.19;;;12.14;100.00
10014;BME280;45684;48.358;10.746;2022-09-02T05:39:33;96209.06;;;12.20;100.00
10014;BME280;45684;48.358;10.746;2022-09-02T05:42:03;96204.59;;;12.24;100.00
10014;BME280;45684;48.358;10.746;2022-09-02T05:44:34;96199.63;;;12.26;100.00
10014;BME280;45684;48.358;10.746;2022-09-02T05:47:04;96206.16;;;12.34;100.00
10014;BME280;45684;48.358;10.746;2022-09-02T05:49:32;96201.50;;;12.34;100.00
10014;BME280;45684;48.358;10.746;2022-09-02T05:52:07;96208.22;;;12.37;100.00
10014;BME280;45684;48.358;10.746;2022-09-02T05:54:41;96203.53;;;12.46;100.00
10014;BME280;45684;48.358;10.746;2022-09-02T05:57:14;96208.78;;;12.51;100.00
10014;BME280;45684;48.358;10.746;2022-09-02T06:00:04;96207.13;;;12.59;100.00
10014;BME280;45684;48.358;10.746;2022-09-02T06:02:48;96206.34;;;12.58;100.00
10014;BME280;45684;48.358;10.746;2022-09-02T06:05:22;96202.97;;;12.61;100.00
10014;BME280;45684;48.358;10.746;2022-09-02T06:07:58;96208.81;;;12.72;100.00
10014;BME280;45684;48.358;10.746;2022-09-02T06:10:26;96205.09;;;12.76;100.00
10014;BME280;45684;48.358;10.746;2022-09-02T06:12:54;96204.25;;;12.85;100.00
10014;BME280;45684;48.358;10.746;2022-09-02T06:15:27;96208.50;;;12.94;100.00
10014;BME280;45684;48.358;10.746;2022-09-02T06:17:58;96190.09;;;13.00;100.00
10014;BME280;45684;48.358;10.746;2022-09-02T06:20:29;96196.41;;;13.13;100.00
10014;BME280;45684;48.358;10.746;2022-09-02T06:22:59;96201.97;;;13.16;100.00
10014;BME280;45684;48.358;10.746;2022-09-02T06:25:27;96200.84;;;13.17;100.00
10014;BME280;45684;48.358;10.746;2022-09-02T06:27:56;96206.56;;;13.24;100.00
10014;BME280;45684;48.358;10.746;2022-09-02T06:30:24;96202.19;;;13.32;100.00
10014;BME280;45684;48.358;10.746;2022-09-02T06:32:53;96204.47;;;13.42;100.00
10014;BME280;45684;48.358;10.746;2022-09-02T06:35:21;96202.47;;;13.51;100.00
10014;BME280;45684;48.358;10.746;2022-09-02T06:37:49;96202.28;;;13.57;100.00
10014;BME280;45684;48.358;10.746;2022-09-02T06:40:18;96208.88;;;13.68;100.00
10014;BME280;45684;48.358;10.746;2022-09-02T06:42:47;96194.31;;;13.72;100.00
10014;BME280;45684;48.358;10.746;2022-09-02T06:45:26;96207.66;;;13.77;100.00
10014;BME280;45684;48.358;10.746;2022-09-02T06:47:58;96206.09;;;13.89;100.00
10014;BME280;45684;48.358;10.746;2022-09-02T06:50:27;96202.50;;;13.97;100.00
10014;BME280;45684;48.358;10.746;2022-09-02T06:52:56;96199.91;;;14.00;100.00
10014;BME280;45684;48.358;10.746;2022-09-02T06:55:25;96197.09;;;14.09;100.00
10014;BME280;45684;48.358;10.746;2022-09-02T06:57:53;96207.88;;;14.18;100.00
10014;BME280;45684;48.358;10.746;2022-09-02T07:00:21;96209.38;;;14.27;100.00
10014;BME280;45684;48.358;10.746;2022-09-02T07:02:49;96207.88;;;14.30;100.00
10014;BME280;45684;48.358;10.746;2022-09-02T07:05:39;96212.31;;;14.35;100.00
10014;BME280;45684;48.358;10.746;2022-09-02T07:08:06;96211.75;;;14.41;100.00
10014;BME280;45684;48.358;10.746;2022-09-02T07:10:36;96214.84;;;14.52;100.00
10014;BME280;45684;48.358;10.746;2022-09-02T07:13:07;96210.19;;;14.65;100.00
10014;BME280;45684;48.358;10.746;2022-09-02T07:15:35;96199.41;;;14.68;100.00
10014;BME280;45684;48.358;10.746;2022-09-02T07:18:03;96208.25;;;14.77;100.00
10014;BME280;45684;48.358;10.746;2022-09-02T07:20:34;96207.31;;;14.86;100.00
10014;BME280;45684;48.358;10.746;2022-09-02T07:23:04;96205.94;;;14.92;100.00
10014;BME280;45684;48.358;10.746;2022-09-02T07:25:37;96203.88;;;15.01;100.00
10014;BME280;45684;48.358;10.746;2022-09-02T07:28:08;96202.28;;;15.12;100.00
10014;BME280;45684;48.358;10.746;2022-09-02T07:30:39;96196.13;;;15.15;100.00
10014;BME280;45684;48.358;10.746;2022-09-02T07:33:12;96195.69;;;15.25;100.00
10014;BME280;45684;48.358;10.746;2022-09-02T07:35:43;96197.44;;;15.34;100.00
10014;BME280;45684;48.358;10.746;2022-09-02T07:38:15;96202.66;;;15.39;100.00
10014;BME280;45684;48.358;10.746;2022-09-02T07:40:44;96199.47;;;15.49;100.00
10014;BME280;45684;48.358;10.746;2022-09-02T07:43:15;96205.44;;;15.54;100.00
10014;BME280;45684;48.358;10.746;2022-09-02T07:45:43;96199.53;;;15.65;100.00
10014;BME280;45684;48.358;10.746;2022-09-02T07:48:12;96203.56;;;15.71;100.00
10014;BME280;45684;48.358;10.746;2022-09-02T07:50:41;96199.31;;;15.86;100.00
10014;BME280;45684;48.358;10.746;2022-09-02T07:53:13;96197.91;;;15.92;100.00
10014;BME280;45684;48.358;10.746;2022-09-02T07:55:45;96200.22;;;16.05;100.00
10014;BME280;45684;48.358;10.746;2022-09-02T07:58:14;96191.50;;;16.16;100.00
10014;BME280;45684;48.358;10.746;2022-09-02T08:00:43;96192.66;;;16.30;100.00
10014;BME280;45684;48.358;10.746;2022-09-02T08:03:12;96193.25;;;16.40;100.00
10014;BME280;45684;48.358;10.746;2022-09-02T08:05:46;96198.97;;;16.50;100.00
10014;BME280;45684;48.358;10.746;2022-09-02T08:08:15;96200.56;;;16.67;100.00
10014;BME280;45684;48.358;10.746;2022-09-02T08:10:46;96205.50;;;16.77;100.00
10014;BME280;45684;48.358;10.746;2022-09-02T08:13:15;96195.16;;;16.87;100.00
10014;BME280;45684;48.358;10.746;2022-09-02T08:15:44;96195.75;;;16.96;100.00
10014;BME280;45684;48.358;10.746;2022-09-02T08:18:16;96199.19;;;17.08;99.71
10014;BME280;45684;48.358;10.746;2022-09-02T08:20:48;96203.28;;;17.18;99.24
10014;BME280;45684;48.358;10.746;2022-09-02T08:23:16;96202.63;;;17.25;99.38
10014;BME280;45684;48.358;10.746;2022-09-02T08:26:04;96197.41;;;17.36;95.61
10014;BME280;45684;48.358;10.746;2022-09-02T08:28:32;96195.97;;;17.42;92.43
10014;BME280;45684;48.358;10.746;2022-09-02T08:31:04;96198.03;;;17.48;88.54
10014;BME280;45684;48.358;10.746;2022-09-02T08:33:32;96202.59;;;17.60;89.77
10014;BME280;45684;48.358;10.746;2022-09-02T08:36:02;96194.22;;;17.72;89.83
10014;BME280;45684;48.358;10.746;2022-09-02T08:38:30;96201.13;;;17.85;90.28
10014;BME280;45684;48.358;10.746;2022-09-02T08:40:58;96198.91;;;17.91;88.08
10014;BME280;45684;48.358;10.746;2022-09-02T08:43:32;96201.34;;;17.96;84.13
10014;BME280;45684;48.358;10.746;2022-09-02T08:46:04;96200.81;;;18.10;80.94
10014;BME280;45684;48.358;10.746;2022-09-02T08:48:37;96207.94;;;18.15;79.55
10014;BME280;45684;48.358;10.746;2022-09-02T08:51:09;96195.91;;;18.19;79.04
10014;BME280;45684;48.358;10.746;2022-09-02T08:53:46;96201.38;;;18.19;80.60
10014;BME280;45684;48.358;10.746;2022-09-02T08:56:17;96191.47;;;18.34;78.52
10014;BME280;45684;48.358;10.746;2022-09-02T08:58:48;96198.25;;;18.44;73.02
10014;BME280;45684;48.358;10.746;2022-09-02T09:01:31;96200.44;;;18.57;78.73
10014;BME280;45684;48.358;10.746;2022-09-02T09:04:20;96203.13;;;18.77;74.86
10014;BME280;45684;48.358;10.746;2022-09-02T09:07:03;96201.81;;;18.94;71.55
10014;BME280;45684;48.358;10.746;2022-09-02T09:09:44;96201.97;;;19.04;72.41
10014;BME280;45684;48.358;10.746;2022-09-02T09:12:22;96203.78;;;19.23;73.85
10014;BME280;45684;48.358;10.746;2022-09-02T09:14:59;96204.81;;;19.42;70.70
10014;BME280;45684;48.358;10.746;2022-09-02T09:17:35;96187.78;;;19.59;66.49
10014;BME280;45684;48.358;10.746;2022-09-02T09:20:10;96185.69;;;19.79;68.05
10014;BME280;45684;48.358;10.746;2022-09-02T09:22:41;96183.50;;;19.95;64.76
10014;BME280;45684;48.358;10.746;2022-09-02T09:25:12;96179.66;;;20.03;66.72
10014;BME280;45684;48.358;10.746;2022-09-02T09:27:41;96178.63;;;20.19;67.45
10014;BME280;45684;48.358;10.746;2022-09-02T09:30:13;96182.72;;;20.35;62.88
10014;BME280;45684;48.358;10.746;2022-09-02T09:32:44;96176.81;;;20.37;61.93
10014;BME280;45684;48.358;10.746;2022-09-02T09:35:13;96176.97;;;20.48;59.99
10014;BME280;45684;48.358;10.746;2022-09-02T09:37:43;96179.41;;;20.60;57.38
10014;BME280;45684;48.358;10.746;2022-09-02T09:40:28;96176.66;;;20.60;57.47
10014;BME280;45684;48.358;10.746;2022-09-02T09:43:09;96169.56;;;20.59;54.00
10014;BME280;45684;48.358;10.746;2022-09-02T09:45:49;96179.59;;;20.85;52.83
10014;BME280;45684;48.358;10.746;2022-09-02T09:48:23;96171.44;;;21.03;52.95
10014;BME280;45684;48.358;10.746;2022-09-02T09:51:11;96167.97;;;21.13;56.62
10014;BME280;45684;48.358;10.746;2022-09-02T09:53:39;96169.31;;;21.37;54.16
10014;BME280;45684;48.358;10.746;2022-09-02T09:56:29;96163.50;;;21.63;54.00
10014;BME280;45684;48.358;10.746;2022-09-02T09:59:06;96166.72;;;21.87;50.63
10014;BME280;45684;48.358;10.746;2022-09-02T10:01:35;96165.19;;;22.04;50.13
10014;BME280;45684;48.358;10.746;2022-09-02T10:04:06;96161.31;;;22.30;50.80
10014;BME280;45684;48.358;10.746;2022-09-02T10:06:55;96156.97;;;22.47;47.55
10014;BME280;45684;48.358;10.746;2022-09-02T10:09:28;96160.91;;;22.56;48.82
10014;BME280;45684;48.358;10.746;2022-09-02T10:11:59;96161.69;;;22.78;46.35
10014;BME280;45684;48.358;10.746;2022-09-02T10:14:35;96163.63;;;23.03;45.53
10014;BME280;45684;48.358;10.746;2022-09-02T10:17:26;96162.81;;;23.20;43.74
10014;BME280;45684;48.358;10.746;2022-09-02T10:20:03;96164.75;;;23.34;44.93
10014;BME280;45684;48.358;10.746;2022-09-02T10:23:02;96166.25;;;23.53;45.78
10014;BME280;45684;48.358;10.746;2022-09-02T10:25:37;96158.63;;;23.85;44.39
10014;BME280;45684;48.358;10.746;2022-09-02T10:28:20;96157.34;;;24.04;43.16
10014;BME280;45684;48.358;10.746;2022-09-02T10:30:59;96155.22;;;24.26;41.78
10014;BME280;45684;48.358;10.746;2022-09-02T10:33:38;96150.56;;;24.16;40.43
10014;BME280;45684;48.358;10.746;2022-09-02T10:36:15;96158.09;;;24.12;40.39
10014;BME280;45684;48.358;10.746;2022-09-02T10:38:50;96153.22;;;24.30;41.74
10014;BME280;45684;48.358;10.746;2022-09-02T10:41:35;96152.63;;;24.57;39.89
10014;BME280;45684;48.358;10.746;2022-09-02T10:44:26;96143.88;;;25.03;39.84
10014;BME280;45684;48.358;10.746;2022-09-02T10:47:01;96153.78;;;25.42;39.06
10014;BME280;45684;48.358;10.746;2022-09-02T10:49:52;96141.94;;;25.41;38.35
10014;BME280;45684;48.358;10.746;2022-09-02T10:52:33;96138.31;;;25.44;36.68
10014;BME280;45684;48.358;10.746;2022-09-02T10:55:11;96141.41;;;25.50;36.49
10014;BME280;45684;48.358;10.746;2022-09-02T10:57:46;96138.53;;;25.61;37.44
10014;BME280;45684;48.358;10.746;2022-09-02T11:00:20;96141.69;;;25.93;36.54
10014;BME280;45684;48.358;10.746;2022-09-02T11:02:52;96127.44;;;26.18;36.37
10014;BME280;45684;48.358;10.746;2022-09-02T11:05:24;96121.94;;;26.15;36.84
10014;BME280;45684;48.358;10.746;2022-09-02T11:07:57;96114.56;;;26.32;36.04
10014;BME280;45684;48.358;10.746;2022-09-02T11:10:30;96112.78;;;26.45;35.91
10014;BME280;45684;48.358;10.746;2022-09-02T11:13:04;96116.28;;;26.73;35.71
10014;BME280;45684;48.358;10.746;2022-09-02T11:15:42;96114.03;;;26.87;36.05
10014;BME280;45684;48.358;10.746;2022-09-02T11:18:18;96103.06;;;26.80;35.02
10014;BME280;45684;48.358;10.746;2022-09-02T11:20:58;96108.47;;;27.11;35.49
10014;BME280;45684;48.358;10.746;2022-09-02T11:23:34;96105.63;;;27.14;34.71
10014;BME280;45684;48.358;10.746;2022-09-02T11:26:10;96106.13;;;27.29;33.28
10014;BME280;45684;48.358;10.746;2022-09-02T11:28:46;96102.75;;;27.18;33.61
10014;BME280;45684;48.358;10.746;2022-09-02T11:31:20;96107.81;;;27.23;33.67
10014;BME280;45684;48.358;10.746;2022-09-02T11:33:54;96102.13;;;27.30;33.56
10014;BME280;45684;48.358;10.746;2022-09-02T11:36:26;96116.47;;;27.65;33.44
10014;BME280;45684;48.358;10.746;2022-09-02T11:39:02;96107.06;;;27.42;34.34
10014;BME280;45684;48.358;10.746;2022-09-02T11:41:58;96100.84;;;27.75;32.63
10014;BME280;45684;48.358;10.746;2022-09-02T11:44:45;96097.34;;;27.51;33.77
10014;BME280;45684;48.358;10.746;2022-09-02T11:47:46;96098.53;;;27.69;32.90
10014;BME280;45684;48.358;10.746;2022-09-02T11:50:27;96095.69;;;28.09;31.99
10014;BME280;45684;48.358;10.746;2022-09-02T11:53:16;96088.13;;;27.93;32.52
10014;BME280;45684;48.358;10.746;2022-09-02T11:55:47;96091.47;;;27.85;34.32
10014;BME280;45684;48.358;10.746;2022-09-02T11:58:31;96097.13;;;27.97;32.65
10014;BME280;45684;48.358;10.746;2022-09-02T12:01:31;96099.13;;;27.97;31.66
10014;BME280;45684;48.358;10.746;2022-09-02T12:04:03;96101.16;;;28.13;31.51
10014;BME280;45684;48.358;10.746;2022-09-02T12:07:23;96102.03;;;28.26;33.47
10014;BME280;45684;48.358;10.746;2022-09-02T12:09:56;96099.03;;;28.37;32.77
10014;BME280;45684;48.358;10.746;2022-09-02T12:15:35;96097.47;;;28.36;32.09
10014;BME280;45684;48.358;10.746;2022-09-02T12:18:12;96100.47;;;28.25;32.60
10014;BME280;45684;48.358;10.746;2022-09-02T12:21:09;96089.84;;;28.20;33.12
10014;BME280;45684;48.358;10.746;2022-09-02T12:24:19;96090.28;;;28.02;31.78
10014;BME280;45684;48.358;10.746;2022-09-02T12:29:54;96089.84;;;28.20;32.54
10014;BME280;45684;48.358;10.746;2022-09-02T12:35:32;96101.09;;;28.33;32.10
10014;BME280;45684;48.358;10.746;2022-09-02T12:38:27;96090.41;;;28.47;32.65
10014;BME280;45684;48.358;10.746;2022-09-02T12:41:05;96087.94;;;28.33;34.27
10014;BME280;45684;48.358;10.746;2022-09-02T12:43:48;96088.94;;;28.43;31.64
10014;BME280;45684;48.358;10.746;2022-09-02T12:46:26;96072.47;;;28.48;32.65
10014;BME280;45684;48.358;10.746;2022-09-02T12:49:02;96077.56;;;28.37;32.78
10014;BME280;45684;48.358;10.746;2022-09-02T12:51:52;96073.41;;;28.26;33.38
10014;BME280;45684;48.358;10.746;2022-09-02T12:54:30;96067.38;;;28.47;32.19
10014;BME280;45684;48.358;10.746;2022-09-02T12:56:58;96064.13;;;28.32;32.00
10014;BME280;45684;48.358;10.746;2022-09-02T12:59:29;96056.50;;;28.36;33.57
10014;BME280;45684;48.358;10.746;2022-09-02T13:02:09;96064.88;;;28.36;32.06
10014;BME280;45684;48.358;10.746;2022-09-02T13:04:49;96060.06;;;28.37;31.92
10014;BME280;45684;48.358;10.746;2022-09-02T13:07:53;96052.50;;;28.37;32.38
10014;BME280;45684;48.358;10.746;2022-09-02T13:10:53;96056.31;;;28.43;32.05
10014;BME280;45684;48.358;10.746;2022-09-02T13:13:49;96052.59;;;28.50;33.06
10014;BME280;45684;48.358;10.746;2022-09-02T13:16:35;96054.59;;;28.50;30.53
10014;BME280;45684;48.358;10.746;2022-09-02T13:28:52;96039.81;;;28.36;32.19
10014;BME280;45684;48.358;10.746;2022-09-02T13:31:25;96043.28;;;28.24;31.63